Flight Track Log - Related Links

Times and Time Zones

All times are in EDT time to prevent confusion due to time zone crossing. See the LAN2531 flight status page for this flight to view local times or setup timezone preferences in your user account.

Time Position Orientation Groundspeed Altitude Reporting Facility
EDT Latitude Longitude Course Direction KTS MPH feet Rate Location/Type
Fri 12:25:37 AM 40.6000 -73.8000 191° South 182 209 1,400  Level New York TRACON
Fri 12:26:37 AM 40.5333 -73.8167 191° South 248 285 3,600 2,456 Climbing New York TRACON
Fri 12:28:28 AM 40.4889 -73.6636 111° Southeast 252 290 8,400 2,462 Climbing New York Center
Fri 12:29:30 AM 40.4367 -73.5822 130° Southeast 274 315 10,700 1,835 Climbing New York Center
Fri 12:30:29 AM 40.3508 -73.5053 146° Southeast 321 369 12,100 2,000 Climbing New York Center
Fri 12:31:30 AM 40.2569 -73.4200 145° Southeast 373 429 14,700 2,394 Climbing New York Center
Fri 12:33:52 AM 40.0114 -73.3567 169° South 390 449 20,200 2,168 Climbing Washington Center
Fri 12:34:52 AM 39.9194 -73.4517 218° Southwest 369 425 22,000 1,800 Climbing Washington Center
Fri 12:35:52 AM 39.8275 -73.5572 221° Southwest 410 472 23,800 1,800 Climbing Washington Center
Fri 12:36:52 AM 39.7247 -73.6517 215° Southwest 436 502 25,600 1,750 Climbing Washington Center
Fri 12:37:52 AM 39.6075 -73.7383 210° Southwest 463 533 27,300 1,884 Climbing Washington Center
Fri 12:38:53 AM 39.4964 -73.8300 212° Southwest 478 550 29,400 1,934 Climbing Washington Center
Fri 12:39:53 AM 39.3869 -73.9161 211° Southwest 478 550 31,200 1,230 Climbing Washington Center
Fri 12:40:55 AM 39.2778 -74.0042 212° Southwest 473 544 31,900 353 Climbing Washington Center
Fri 12:41:52 AM 39.1683 -74.0869 210° Southwest 473 544 31,900 51 Level Washington Center
Fri 12:42:52 AM 39.0592 -74.1775 213° Southwest 473 544 32,000 50 Climbing Washington Center
Fri 12:43:52 AM 38.9536 -74.2597 211° Southwest 468 539 32,000 -49 Level Washington Center
Fri 12:44:54 AM 38.8461 -74.3417 211° Southwest 461 531 31,900 -50 Descending Washington Center
Fri 12:45:52 AM 38.7367 -74.4258 211° Southwest 461 531 31,900 50 Level Washington Center
Fri 12:46:55 AM 38.6289 -74.5128 212° Southwest 461 531 32,000  Climbing Washington Center
Fri 12:47:52 AM 38.5192 -74.5967 211° Southwest 461 531 31,900  Descending Washington Center
Fri 12:48:52 AM 38.4094 -74.6750 209° Southwest 461 531 32,000 49 Climbing Washington Center
Fri 12:49:54 AM 38.3017 -74.7664 214° Southwest 466 536 32,000  Level Washington Center
Fri 12:50:53 AM 38.1917 -74.8494 211° Southwest 466 536 32,000 -50 Level Washington Center
Fri 12:51:53 AM 38.0794 -74.9322 210° Southwest 471 542 31,900 -50 Descending Washington Center
Fri 12:52:53 AM 37.9672 -75.0175 211° Southwest 471 542 31,900 50 Level Washington Center
Fri 12:53:54 AM 37.8531 -75.1053 211° Southwest 471 542 32,000  Climbing Washington Center
Fri 12:54:55 AM 37.7386 -75.1900 210° Southwest 471 542 31,900  Descending Washington Center
Fri 12:55:54 AM 37.6222 -75.2772 211° Southwest 477 549 32,000 51 Climbing Washington Center
Fri 12:56:53 AM 37.5097 -75.3614 211° Southwest 477 549 32,000  Level Washington Center
Fri 12:57:55 AM 37.3950 -75.4481 211° Southwest 482 555 32,000  Level Washington Center
Fri 12:58:55 AM 37.2806 -75.5319 210° Southwest 482 555 32,000  Level Washington Center
Fri 12:59:53 AM 37.1658 -75.6153 210° Southwest 487 560 32,000 -51 Level Washington Center
Fri 01:00:52 AM 37.0508 -75.6986 210° Southwest 487 560 31,900 -50 Descending Washington Center
Fri 01:01:53 AM 36.9342 -75.7842 210° Southwest 487 560 31,900 49 Level Washington Center
Fri 01:02:54 AM 36.8067 -75.8722 209° Southwest 487 560 32,000 50 Climbing Washington Center
Fri 01:03:54 AM 36.6917 -75.9572 211° Southwest 487 560 32,000 -50 Level Washington Center
Fri 01:04:55 AM 36.5786 -76.0419 211° Southwest 487 560 31,900 -50 Descending Washington Center
Fri 01:05:55 AM 36.4636 -76.1239 210° Southwest 487 560 31,900  Level Washington Center
Fri 01:06:53 AM 36.3486 -76.2031 209° Southwest 487 560 31,900 51 Level Washington Center
Fri 01:07:53 AM 36.2189 -76.2536 197° South 482 555 32,000 50 Climbing Washington Center
Fri 01:08:54 AM 36.0872 -76.2989 196° South 488 562 32,000  Level Washington Center
Fri 01:09:54 AM 35.9533 -76.3411 194° South 493 567 32,000  Level Washington Center
Fri 01:10:55 AM 35.8239 -76.3836 195° South 493 567 32,000 -50 Level Washington Center
Fri 01:11:55 AM 35.6900 -76.4333 197° South 499 574 31,900  Descending Washington Center
Fri 01:12:54 AM 35.5603 -76.4756 195° South 494 568 32,000 51 Climbing Washington Center
Fri 01:13:52 AM 35.4283 -76.5200 195° South 494 568 32,000  Level Washington Center
Fri 01:14:53 AM 35.3114 -76.5594 195° South 494 568 32,000  Level Washington Center
Fri 01:15:54 AM 35.1817 -76.6008 195° South 488 562 32,000 -38 Level Washington Center
Fri 01:17:33 AM 34.9681 -76.6744 196° South 488 562 31,900  Descending Washington Center
Fri 01:18:33 AM 34.8406 -76.7183 196° South 483 556 32,000 50 Climbing Washington Center
Fri 01:19:33 AM 34.7108 -76.7569 194° South 483 556 32,000  Level Washington Center
Fri 01:20:33 AM 34.5831 -76.8006 196° South 478 550 32,000  Level Washington Center
Fri 01:21:32 AM 34.4553 -76.8414 195° South 478 550 32,000  Level Washington Center
Fri 01:22:32 AM 34.3275 -76.8822 195° South 478 550 32,000  Level Washington Center
Fri 01:23:32 AM 34.2000 -76.9228 195° South 478 550 32,000  Level Washington Center
Fri 01:24:32 AM 34.0722 -76.9633 195° South 478 550 32,000  Level Washington Center
Fri 01:25:32 AM 33.9297 -77.0111 196° South 478 550 32,000  Level Washington Center
Fri 01:26:32 AM 33.8019 -77.0514 195° South 478 550 32,000  Level Washington Center
Fri 01:27:32 AM 33.6764 -77.0917 195° South 478 550 32,000  Level Washington Center
Fri 01:29:26 AM 33.4497 -77.1625 195° South 472 543 32,000  Level Jacksonville Center
Fri 01:30:26 AM 33.3222 -77.2056 196° South 467 537 32,000 -50 Level Jacksonville Center
Fri 01:31:26 AM 33.1967 -77.2458 195° South 467 537 31,900 -50 Descending Jacksonville Center
Fri 01:32:26 AM 33.0753 -77.2833 195° South 467 537 31,900 50 Level Jacksonville Center
Fri 01:33:26 AM 32.9497 -77.3233 195° South 467 537 32,000 50 Climbing Jacksonville Center
Fri 01:34:26 AM 32.8264 -77.3631 195° South 467 537 32,000  Level Jacksonville Center
Fri 01:35:26 AM 32.7028 -77.4003 194° South 467 537 32,000  Level Jacksonville Center
Fri 01:36:26 AM 32.5769 -77.4375 194° South 467 537 32,000  Level Jacksonville Center
Fri 01:37:26 AM 32.4517 -77.4794 196° South 467 537 32,000  Level Jacksonville Center
Fri 01:38:26 AM 32.3278 -77.5164 194° South 467 537 32,000  Level Jacksonville Center
Fri 01:39:26 AM 32.2022 -77.5556 195° South 467 537 32,000 -50 Level Jacksonville Center
Fri 01:40:26 AM 32.0767 -77.5947 195° South 467 537 31,900  Descending Jacksonville Center
Fri 01:41:26 AM 31.9508 -77.6339 195° South 472 543 32,000 50 Climbing Jacksonville Center
Fri 01:42:26 AM 31.8233 -77.6753 195° South 472 543 32,000  Level Jacksonville Center
Fri 01:43:26 AM 31.6972 -77.7067 192° South 472 543 32,000  Level Jacksonville Center
Fri 01:44:26 AM 31.5694 -77.7456 195° South 472 543 32,000 -50 Level Jacksonville Center
Fri 01:45:26 AM 31.4439 -77.7939 198° South 472 543 31,900  Descending Jacksonville Center
Fri 01:46:26 AM 31.3178 -77.8250 192° South 472 543 32,000 50 Climbing Jacksonville Center
Fri 01:47:26 AM 31.1900 -77.8611 194° South 472 543 32,000 -50 Level Jacksonville Center
Fri 01:48:26 AM 31.0639 -77.8944 193° South 467 537 31,900  Descending Jacksonville Center
Fri 01:49:26 AM 30.9383 -77.9375 196° South 467 537 32,000 50 Climbing Jacksonville Center
Fri 01:50:26 AM 30.8106 -77.9828 197° South 467 537 32,000 -40 Level Jacksonville Center
Fri 01:51:57 AM 30.6297 -78.0414 196° South 467 537 31,900  Descending Miami Center
Fri 01:53:00 AM 30.4900 -78.0758 192° South 471 542 32,000 49 Climbing Miami Center
Fri 01:53:59 AM 30.3708 -78.1083 193° South 470 541 32,000  Level Miami Center
Fri 01:54:57 AM 30.2350 -78.1283 187° South 476 548 32,000 -51 Level Miami Center
Fri 01:55:57 AM 30.1097 -78.1508 189° South 470 541 31,900 -49 Descending Miami Center
Fri 01:57:00 AM 29.9867 -78.1781 191° South 471 542 31,900 50 Level Miami Center
Fri 01:57:58 AM 29.8508 -78.1908 185° South 471 542 32,000 51 Climbing Miami Center
Fri 01:58:57 AM 29.7236 -78.2156 190° South 476 548 32,000 -50 Level Miami Center
Fri 01:59:57 AM 29.5897 -78.2328 186° South 476 548 31,900 -50 Descending Miami Center
Fri 02:00:57 AM 29.4686 -78.2600 191° South 476 548 31,900 50 Level Miami Center
Fri 02:01:58 AM 29.3328 -78.2772 186° South 470 541 32,000 50 Climbing Miami Center
Fri 02:02:57 AM 29.2033 -78.2969 188° South 475 547 32,000  Level Miami Center
Fri 02:03:57 AM 29.0736 -78.3167 188° South 475 547 32,000  Level Miami Center
Fri 02:04:57 AM 28.9422 -78.3339 187° South 470 541 32,000  Level Miami Center
Fri 02:05:57 AM 28.8147 -78.3558 189° South 475 547 32,000 -50 Level Miami Center
Fri 02:06:57 AM 28.6808 -78.3756 187° South 482 555 31,900  Descending Miami Center
Fri 02:07:57 AM 28.5594 -78.3950 188° South 476 548 32,000 49 Climbing Miami Center
Fri 02:08:59 AM 28.4236 -78.4167 188° South 471 542 32,000  Level Miami Center
Fri 02:09:59 AM 28.2983 -78.4364 188° South 471 542 32,000  Level Miami Center
Fri 02:10:59 AM 28.1706 -78.4558 188° South 471 542 32,000  Level Miami Center
Fri 02:12:00 AM 28.0264 -78.4772 187° South 464 534 32,000  Level Miami Center
Fri 02:13:00 AM 27.9008 -78.4967 188° South 464 534 32,000  Level Miami Center
Fri 02:14:00 AM 27.7628 -78.5181 188° South 479 551 32,000 -51 Level Miami Center
Fri 02:14:57 AM 27.6331 -78.5397 188° South 486 559 31,900 -50 Descending Miami Center
Fri 02:16:00 AM 27.5056 -78.5564 187° South 486 559 31,900  Level Miami Center
Fri 02:16:57 AM 27.3736 -78.5756 187° South 486 559 31,900 51 Level Miami Center
Fri 02:17:57 AM 27.2419 -78.6017 190° South 481 554 32,000 50 Climbing Miami Center
Fri 02:18:57 AM 27.1222 -78.6558 202° Southwest 464 534 32,000  Level Miami Center
Fri 02:19:57 AM 27.0086 -78.7103 203° Southwest 459 528 32,000 -50 Level Miami Center
Fri 02:20:57 AM 26.8847 -78.7572 199° South 459 528 31,900 -49 Descending Miami Center
Fri 02:21:59 AM 26.7467 -78.7758 187° South 491 565 31,900 49 Level Miami Center
Fri 02:22:59 AM 26.6189 -78.7969 188° South 484 557 32,000 50 Climbing Miami Center
Fri 02:24:00 AM 26.4872 -78.8158 187° South 490 564 32,000  Level Miami Center
Fri 02:24:57 AM 26.3469 -78.8272 184° South 490 564 32,000 -51 Level Miami Center
Fri 02:25:57 AM 26.2111 -78.8436 186° South 490 564 31,900 -50 Descending Miami Center
Fri 02:26:57 AM 26.0917 -78.8603 187° South 496 571 31,900 50 Level Miami Center
Fri 02:27:57 AM 25.9536 -78.8808 188° South 501 577 32,000 50 Climbing Miami Center
Fri 02:28:57 AM 25.8133 -78.8925 184° South 506 582 32,000  Level Miami Center
Fri 02:29:57 AM 25.6711 -78.9086 186° South 506 582 32,000  Level Miami Center
Fri 02:30:57 AM 25.5308 -78.9200 184° South 506 582 32,000  Level Miami Center
Fri 02:31:57 AM 25.3864 -78.9358 186° South 511 588 32,000  Level Miami Center
Fri 02:32:57 AM 25.2464 -78.9497 185° South 511 588 32,000  Level Miami Center
Fri 02:33:58 AM 25.1061 -78.9564 182° South 511 588 32,000  Level Miami Center
Fri 02:34:57 AM 24.9703 -78.9700 185° South 511 588 32,000 -50 Level Miami Center
Fri 02:35:57 AM 24.8278 -78.9861 186° South 511 588 31,900 -50 Descending Miami Center
Fri 02:36:58 AM 24.6919 -78.9975 184° South 503 579 31,900 49 Level Miami Center
Fri 02:38:00 AM 24.5889 -79.0300 196° South 503 579 32,000 99 Climbing Miami Center
Fri 02:38:59 AM 24.4175 -79.0314 180° South 503 579 32,100 500 Climbing Miami Center
Fri 02:40:00 AM 24.2836 -79.0428 184° South 503 579 33,000 450 Climbing Miami Center
Fri 02:40:59 AM 24.1436 -79.0542 184° South 497 572 33,000  Level Miami Center
Fri 02:42:00 AM 24.0139 -79.0722 187° South 487 560 33,000  Level Miami Center
Fri 02:43:00 AM 23.8820 -79.0606 177° South  Level FlightAware Approximate
Fri 02:43:00 AM 23.8736 -79.0744 177° South 487 560 33,000  Level Miami Center
Fri 02:43:59 AM 23.7356 -79.0856 184° South 492 566 33,000  Level Miami Center
Fri 02:45:00 AM 23.6017 -79.1036 187° South 498 573 33,000  Level Miami Center
Fri 02:45:59 AM 23.4717 -79.1264 176° South 493 567 33,000  Level Miami Center
Fri 02:46:00 AM 23.4734 -79.0942 176° South  Level FlightAware Approximate
Fri 02:46:57 AM 23.3339 -79.1283 181° South 493 567 33,000  Level Miami Center
Fri 02:47:58 AM 23.1961 -79.1258 179° South 493 567 33,000  Level Miami Center
Fri 02:48:57 AM 23.0642 -79.1328 183° South 493 567 33,000  Level Miami Center
Fri 02:49:57 AM 22.9283 -79.1347 181° South 493 567 33,000  Level Miami Center
Fri 02:50:57 AM 22.7844 -79.1256 177° South 500 575 33,000  Level Miami Center
Fri 02:51:59 AM 22.6508 -79.1278 181° South 500 575 33,000  Level Miami Center
Fri 02:52:58 AM 22.5169 -79.1367 184° South 500 575 33,000  Level Miami Center
Fri 02:53:57 AM 22.3769 -79.1319 178° South 493 567 33,000  Level Miami Center
Fri 02:54:57 AM 22.2411 -79.1364 182° South 498 573 33,000  Level Miami Center
Fri 02:55:58 AM 22.1014 -79.1317 178° South 492 566 33,000  Level Miami Center
Fri 02:56:59 AM 21.9531 -79.1336 181° South 497 572 33,000  Level Miami Center
Fri 02:57:57 AM 21.8233 -79.1381 182° South 488 562 33,000  Level Miami Center
Fri 02:58:57 AM 21.6753 -79.1333 178° South 501 577 33,000  Level Miami Center
Fri 02:59:57 AM 21.5458 -79.1358 181° South 494 568 33,000  Level Miami Center
Fri 03:00:59 AM 21.4331 -79.1339 179° South 489 563 33,000  Level Miami Center
Fri 03:01:57 AM 21.2722 -79.1333 180° South 489 563 33,000  Level Miami Center
Fri 03:02:57 AM 21.1364 -79.1378 182° South 491 565 33,000  Level Miami Center
Fri 03:03:57 AM 21.0069 -79.1467 184° South 491 565 33,000  Level Miami Center
Fri 03:04:59 AM 20.8817 -79.1469 180° South 491 565 33,000  Level Miami Center
Fri 03:05:57 AM 20.7461 -79.1511 182° South 491 565 33,000  Level Miami Center
Fri 03:06:59 AM 20.6375 -79.1539 181° South 491 565 33,000  Level Miami Center
Fri 03:07:57 AM 20.6375 -79.1539 90° East 491 565 33,000  Level Miami Center
Fri 03:09:57 AM 20.6375 -79.1539 90° East 491 565 33,000  Level Miami Center
Fri 03:11:57 AM 20.6375 -79.1539 90° East 491 565 33,000  Level Miami Center
Fri 03:13:59 AM 20.6375 -79.1539 90° East 491 565 33,000  Level Miami Center
Fri 03:15:57 AM 20.6375 -79.1539 90° East 491 565 33,000  Level Miami Center
Fri 03:18:00 AM 20.6375 -79.1539 90° East 491 565 33,000  Level Miami Center
Fri 03:19:59 AM 20.6375 -79.1539 90° East 491 565 33,000  Level Miami Center
Fri 03:21:59 AM 20.6375 -79.1539 90° East 491 565 33,000  Level Miami Center
Fri 03:23:57 AM 20.6375 -79.1539 90° East 491 565 33,000  Level Miami Center
Fri 03:25:57 AM 20.6375 -79.1539 90° East 491 565 33,000  Level Miami Center
Fri 03:27:58 AM 20.6375 -79.1539 90° East 491 565 33,000  Level Miami Center
Fri 03:29:57 AM 20.6375 -79.1539 90° East 491 565 33,000  Level Miami Center
Fri 03:31:57 AM 20.6375 -79.1539 90° East 491 565 33,000  Level Miami Center
Fri 03:33:58 AM 20.6375 -79.1539 90° East 491 565 33,000  Level Miami Center
Fri 03:35:57 AM 20.6375 -79.1539 90° East 491 565 33,000  Level Miami Center
Fri 03:37:57 AM 20.6375 -79.1539 90° East 491 565 33,000  Level Miami Center
Fri 03:39:57 AM 20.6375 -79.1539 90° East 491 565 33,000  Level Miami Center
Fri 03:41:57 AM 20.6375 -79.1539 90° East 491 565 33,000  Level Miami Center
Fri 03:43:57 AM 20.6375 -79.1539 90° East 491 565 33,000  Level Miami Center
Fri 03:45:57 AM 20.6375 -79.1539 90° East 491 565 33,000  Level Miami Center
Fri 03:48:00 AM 20.6375 -79.1539 90° East 491 565 33,000  Level Miami Center
Fri 03:49:57 AM 20.6375 -79.1539 90° East 491 565 33,000  Level Miami Center
Fri 03:52:00 AM 20.6375 -79.1539 90° East 491 565 33,000  Level Miami Center
Fri 03:53:57 AM 20.6375 -79.1539 90° East 491 565 33,000  Level Miami Center
Fri 03:55:57 AM 20.6375 -79.1539 90° East 491 565 33,000  Level Miami Center
Fri 03:57:57 AM 20.6375 -79.1539 90° East 491 565 33,000  Level Miami Center
Fri 03:59:57 AM 20.6375 -79.1539 90° East 491 565 33,000  Level Miami Center
Fri 04:01:57 AM 20.6375 -79.1539 90° East 491 565 33,000  Level Miami Center
Fri 04:03:57 AM 20.6375 -79.1539 90° East 491 565 33,000  Level Miami Center
Fri 04:05:57 AM 20.6375 -79.1539 90° East 491 565 33,000  Level Miami Center
Fri 04:07:57 AM 20.6375 -79.1539 90° East 491 565 33,000  Level Miami Center
Fri 04:09:57 AM 20.6375 -79.1539 90° East 491 565 33,000  Level Miami Center
Fri 04:11:59 AM 20.6375 -79.1539 90° East 491 565 33,000  Level Miami Center
Fri 04:13:59 AM 20.6375 -79.1539 90° East 491 565 33,000  Level Miami Center
Fri 04:15:59 AM 20.6375 -79.1539 90° East 491 565 33,000  Level Miami Center
Fri 04:17:57 AM 20.6375 -79.1539 90° East 491 565 33,000  Level Miami Center
Fri 04:20:00 AM 20.6375 -79.1539 90° East 491 565 33,000  Level Miami Center
Fri 04:21:58 AM 20.6375 -79.1539 90° East 491 565 33,000  Level Miami Center
Fri 04:23:57 AM 20.6375 -79.1539 90° East 491 565 33,000  Level Miami Center
Fri 04:26:00 AM 20.6375 -79.1539 90° East 491 565 33,000  Level Miami Center
Fri 04:27:59 AM 20.6375 -79.1539 90° East 491 565 33,000  Level Miami Center
Fri 04:29:58 AM 20.6375 -79.1539 90° East 491 565 33,000  Level Miami Center
Fri 04:31:57 AM 20.6375 -79.1539 90° East 491 565 33,000  Level Miami Center
Fri 04:33:59 AM 20.6375 -79.1539 90° East 491 565 33,000  Level Miami Center
Fri 04:36:00 AM 20.6375 -79.1539 90° East 491 565 33,000  Level Miami Center
Fri 04:37:58 AM 20.6375 -79.1539 90° East 491 565 33,000  Level Miami Center
Fri 04:39:57 AM 20.6375 -79.1539 90° East 491 565 33,000  Level Miami Center
Fri 04:41:59 AM 20.6375 -79.1539 90° East 491 565 33,000  Level Miami Center
Fri 04:43:58 AM 20.6375 -79.1539 90° East 491 565 33,000  Level Miami Center
Fri 04:45:58 AM 20.6375 -79.1539 90° East 491 565 33,000  Level Miami Center
Fri 04:47:57 AM 20.6375 -79.1539 90° East 491 565 33,000  Level Miami Center
Fri 04:49:57 AM 20.6375 -79.1539 90° East 491 565 33,000  Level Miami Center
Fri 04:51:59 AM 20.6375 -79.1539 90° East 491 565 33,000  Level Miami Center
Fri 04:53:58 AM 20.6375 -79.1539 90° East 491 565 33,000  Level Miami Center
Fri 04:55:58 AM 20.6375 -79.1539 90° East 491 565 33,000  Level Miami Center
Fri 04:57:59 AM 20.6375 -79.1539 90° East 491 565 33,000  Level Miami Center
Fri 04:59:57 AM 20.6375 -79.1539 90° East 491 565 33,000  Level Miami Center
Fri 05:01:57 AM 20.6375 -79.1539 90° East 491 565 33,000  Level Miami Center
Fri 05:03:59 AM 20.6375 -79.1539 90° East 491 565 33,000  Level Miami Center
Fri 05:05:57 AM 20.6375 -79.1539 90° East 491 565 33,000  Level Miami Center
Fri 05:07:57 AM 20.6375 -79.1539 90° East 491 565 33,000  Level Miami Center
Fri 05:10:00 AM 20.6375 -79.1539 90° East 491 565 33,000  Level Miami Center
Fri 05:11:57 AM 20.6375 -79.1539 90° East 491 565 33,000  Level Miami Center
Fri 05:13:59 AM 20.6375 -79.1539 90° East 491 565 33,000  Level Miami Center
Fri 05:15:58 AM 20.6375 -79.1539 90° East 491 565 33,000  Level Miami Center
Fri 05:17:57 AM 20.6375 -79.1539 90° East 491 565 33,000  Level Miami Center
Fri 05:19:59 AM 20.6375 -79.1539 90° East 491 565 33,000  Level Miami Center
Fri 05:21:57 AM 20.6375 -79.1539 90° East 491 565 33,000  Level Miami Center
Fri 05:24:00 AM 20.6375 -79.1539 90° East 491 565 33,000  Level Miami Center
Fri 05:25:59 AM 20.6375 -79.1539 90° East 491 565 33,000  Level Miami Center
Fri 05:27:59 AM 20.6375 -79.1539 90° East 491 565 33,000  Level Miami Center
Fri 05:29:57 AM 20.6375 -79.1539 90° East 491 565 33,000  Level Miami Center
Fri 05:31:57 AM 20.6375 -79.1539 90° East 491 565 33,000  Level Miami Center
Fri 05:33:57 AM 20.6375 -79.1539 90° East 491 565 33,000  Level Miami Center
Fri 05:35:57 AM 20.6375 -79.1539 90° East 491 565 33,000  Level Miami Center
Fri 05:37:58 AM 20.6375 -79.1539 90° East 491 565 33,000  Level Miami Center
Fri 05:40:00 AM 20.6375 -79.1539 90° East 491 565 33,000  Level Miami Center
Fri 05:41:57 AM 20.6375 -79.1539 90° East 491 565 33,000  Level Miami Center
Fri 05:43:57 AM 20.6375 -79.1539 90° East 491 565 33,000  Level Miami Center
Fri 05:46:00 AM 20.6375 -79.1539 90° East 491 565 33,000  Level Miami Center
Fri 05:47:58 AM 20.6375 -79.1539 90° East 491 565 33,000  Level Miami Center
Fri 05:49:59 AM 20.6375 -79.1539 90° East 491 565 33,000  Level Miami Center
Fri 05:51:59 AM 20.6375 -79.1539 90° East 491 565 33,000  Level Miami Center
Fri 05:53:57 AM 20.6375 -79.1539 90° East 491 565 33,000  Level Miami Center
Fri 05:55:57 AM 20.6375 -79.1539 90° East 491 565 33,000  Level Miami Center
Fri 05:57:57 AM 20.6375 -79.1539 90° East 491 565 33,000  Level Miami Center
Fri 05:59:57 AM 20.6375 -79.1539 90° East 491 565 33,000  Level Miami Center
Fri 06:01:57 AM 20.6375 -79.1539 90° East 491 565 33,000  Level Miami Center
Fri 06:03:57 AM 20.6375 -79.1539 90° East 491 565 33,000  Level Miami Center
Fri 06:05:57 AM 20.6375 -79.1539 90° East 491 565 33,000  Level Miami Center
Fri 06:07:57 AM 20.6375 -79.1539 90° East 491 565 33,000  Level Miami Center
Fri 06:09:57 AM 20.6375 -79.1539 90° East 491 565 33,000  Level Miami Center
Fri 06:11:57 AM 20.6375 -79.1539 90° East 491 565 33,000  Level Miami Center
Fri 06:13:57 AM 20.6375 -79.1539 90° East 491 565 33,000  Level Miami Center
Fri 06:15:57 AM 20.6375 -79.1539 90° East 491 565 33,000  Level Miami Center
Fri 06:18:09 AM 20.6375 -79.1539 90° East 491 565 33,000  Level Miami Center
Fri 06:20:09 AM 20.6375 -79.1539 90° East 491 565 33,000  Level Miami Center
Fri 06:22:09 AM 20.6375 -79.1539 90° East 491 565 33,000  Level Miami Center
Fri 06:24:09 AM 20.6375 -79.1539 90° East 491 565 33,000  Level Miami Center
Fri 06:26:09 AM 20.6375 -79.1539 90° East 491 565 33,000  Level Miami Center
Fri 06:28:09 AM 20.6375 -79.1539 90° East 491 565 33,000  Level Miami Center
Fri 06:30:09 AM 20.6375 -79.1539 90° East 491 565 33,000  Level Miami Center
Fri 06:32:09 AM 20.6375 -79.1539 90° East 491 565 33,000  Level Miami Center
Fri 06:34:09 AM 20.6375 -79.1539 90° East 491 565 33,000  Level Miami Center
Fri 06:36:09 AM 20.6375 -79.1539 90° East 491 565 33,000  Level Miami Center
Fri 06:38:09 AM 20.6375 -79.1539 90° East 491 565 33,000  Level Miami Center
Fri 06:40:09 AM 20.6375 -79.1539 90° East 491 565 33,000  Level Miami Center
Fri 06:42:09 AM 20.6375 -79.1539 90° East 491 565 33,000  Level Miami Center
Fri 06:44:09 AM 20.6375 -79.1539 90° East 491 565 33,000  Level Miami Center
Fri 06:46:09 AM 20.6375 -79.1539 90° East 491 565 33,000  Level Miami Center
Fri 06:48:09 AM 20.6375 -79.1539 90° East 491 565 33,000  Level Miami Center
Fri 06:50:09 AM 20.6375 -79.1539 90° East 491 565 33,000  Level Miami Center
Fri 06:52:09 AM 20.6375 -79.1539 90° East 491 565 33,000  Level Miami Center
Fri 06:54:09 AM 20.6375 -79.1539 90° East 491 565 33,000  Level Miami Center
Fri 06:56:09 AM 20.6375 -79.1539 90° East 491 565 33,000  Level Miami Center
Fri 06:58:09 AM 20.6375 -79.1539 90° East 491 565 33,000  Level Miami Center
Fri 07:00:09 AM 20.6375 -79.1539 90° East 491 565 33,000  Level Miami Center
Fri 07:02:09 AM 20.6375 -79.1539 90° East 491 565 33,000  Level Miami Center
Fri 07:04:09 AM 20.6375 -79.1539 90° East 491 565 33,000  Level Miami Center
Fri 07:06:09 AM 20.6375 -79.1539 90° East 491 565 33,000  Level Miami Center
Fri 07:08:09 AM 20.6375 -79.1539 90° East 491 565 33,000  Level Miami Center
Fri 07:10:09 AM 20.6375 -79.1539 90° East 491 565 33,000  Level Miami Center
Fri 07:12:09 AM 20.6375 -79.1539 90° East 491 565 33,000  Level Miami Center
Fri 07:14:09 AM 20.6375 -79.1539 90° East 491 565 33,000  Level Miami Center
Fri 07:16:09 AM 20.6375 -79.1539 90° East 491 565 33,000  Level Miami Center
Fri 07:18:09 AM 20.6375 -79.1539 90° East 491 565 33,000  Level Miami Center
Fri 07:20:09 AM 20.6375 -79.1539 90° East 491 565 33,000  Level Miami Center
Fri 07:22:09 AM 20.6375 -79.1539 90° East 491 565 33,000  Level Miami Center
Fri 07:24:09 AM 20.6375 -79.1539 90° East 491 565 33,000  Level Miami Center
Fri 07:26:09 AM 20.6375 -79.1539 90° East 491 565 33,000  Level Miami Center
Fri 07:28:09 AM 20.6375 -79.1539 90° East 491 565 33,000  Level Miami Center
Fri 07:30:09 AM 20.6375 -79.1539 90° East 491 565 33,000  Level Miami Center
Fri 07:32:09 AM 20.6375 -79.1539 90° East 491 565 33,000  Level Miami Center
Fri 07:34:09 AM 20.6375 -79.1539 90° East 491 565 33,000  Level Miami Center
Fri 07:36:09 AM 20.6375 -79.1539 90° East 491 565 33,000  Level Miami Center
Fri 07:38:09 AM 20.6375 -79.1539 90° East 491 565 33,000  Level Miami Center
Fri 07:40:09 AM 20.6375 -79.1539 90° East 491 565 33,000  Level Miami Center
Fri 07:42:10 AM 20.6375 -79.1539 90° East 491 565 33,000  Level Miami Center
Fri 07:44:09 AM 20.6375 -79.1539 90° East 491 565 33,000  Level Miami Center
Fri 07:46:09 AM 20.6375 -79.1539 90° East 491 565 33,000  Level Miami Center
Fri 07:48:09 AM 20.6375 -79.1539 90° East 491 565 33,000  Level Miami Center
Fri 07:50:09 AM 20.6375 -79.1539 90° East 491 565 33,000  Level Miami Center
Fri 07:52:09 AM 20.6375 -79.1539 90° East 491 565 33,000  Level Miami Center
Fri 07:54:09 AM 20.6375 -79.1539 90° East 491 565 33,000  Level Miami Center
Fri 07:56:10 AM 20.6375 -79.1539 90° East 491 565 33,000  Level Miami Center
Fri 07:58:09 AM 20.6375 -79.1539 90° East 491 565 33,000  Level Miami Center
Fri 08:00:09 AM 20.6375 -79.1539 90° East 491 565 33,000  Level Miami Center
Fri 08:02:09 AM 20.6375 -79.1539 90° East 491 565 33,000  Level Miami Center
Fri 08:04:09 AM 20.6375 -79.1539 90° East 491 565 33,000  Level Miami Center
Fri 08:06:09 AM 20.6375 -79.1539 90° East 491 565 33,000  Level Miami Center
Fri 08:08:09 AM 20.6375 -79.1539 90° East 491 565 33,000  Level Miami Center
Fri 08:10:09 AM 20.6375 -79.1539 90° East 491 565 33,000  Level Miami Center
Fri 08:12:09 AM 20.6375 -79.1539 90° East 491 565 33,000  Level Miami Center
Fri 08:14:09 AM 20.6375 -79.1539 90° East 491 565 33,000  Level Miami Center
Fri 08:16:09 AM 20.6375 -79.1539 90° East 491 565 33,000  Level Miami Center
Fri 08:18:09 AM 20.6375 -79.1539 90° East 491 565 33,000  Level Miami Center
Fri 08:20:10 AM 20.6375 -79.1539 90° East 491 565 33,000  Level Miami Center
Fri 08:22:10 AM 20.6375 -79.1539 90° East 491 565 33,000  Level Miami Center
Fri 08:24:09 AM 20.6375 -79.1539 90° East 491 565 33,000  Level Miami Center
Fri 08:26:10 AM 20.6375 -79.1539 90° East 491 565 33,000  Level Miami Center
Fri 08:28:09 AM 20.6375 -79.1539 90° East 491 565 33,000  Level Miami Center
Fri 08:30:09 AM 20.6375 -79.1539 90° East 491 565 33,000  Level Miami Center
Fri 08:32:09 AM 20.6375 -79.1539 90° East 491 565 33,000  Level Miami Center
Fri 08:34:09 AM 20.6375 -79.1539 90° East 491 565 33,000  Level Miami Center
Fri 08:36:09 AM 20.6375 -79.1539 90° East 491 565 33,000  Level Miami Center
Fri 08:38:09 AM 20.6375 -79.1539 90° East 491 565 33,000  Level Miami Center
Fri 08:40:09 AM 20.6375 -79.1539 90° East 491 565 33,000  Level Miami Center
Fri 08:42:09 AM 20.6375 -79.1539 90° East 491 565 33,000  Level Miami Center
Fri 08:44:09 AM 20.6375 -79.1539 90° East 491 565 33,000  Level Miami Center
Fri 08:46:09 AM 20.6375 -79.1539 90° East 491 565 33,000  Level Miami Center
Fri 08:48:09 AM 20.6375 -79.1539 90° East 491 565 33,000  Level Miami Center
Fri 08:50:10 AM 20.6375 -79.1539 90° East 491 565 33,000  Level Miami Center
Fri 08:52:10 AM 20.6375 -79.1539 90° East 491 565 33,000  Level Miami Center
Fri 08:54:10 AM 20.6375 -79.1539 90° East 491 565 33,000  Level Miami Center
Fri 08:56:09 AM 20.6375 -79.1539 90° East 491 565 33,000  Level Miami Center
Fri 08:58:10 AM 20.6375 -79.1539 90° East 491 565 33,000  Level Miami Center
Fri 09:00:09 AM 20.6375 -79.1539 90° East 491 565 33,000  Level Miami Center
Fri 09:02:10 AM 20.6375 -79.1539 90° East 491 565 33,000  Level Miami Center
Fri 09:04:10 AM 20.6375 -79.1539 90° East 491 565 33,000  Level Miami Center
Fri 09:06:09 AM 20.6375 -79.1539 90° East 491 565 33,000  Level Miami Center
Fri 09:08:10 AM 20.6375 -79.1539 90° East 491 565 33,000  Level Miami Center
Fri 09:10:10 AM 20.6375 -79.1539 90° East 491 565 33,000  Level Miami Center
Fri 09:12:09 AM 20.6375 -79.1539 90° East 491 565 33,000  Level Miami Center
Fri 09:14:10 AM 20.6375 -79.1539 90° East 491 565 33,000  Level Miami Center
Fri 09:16:10 AM 20.6375 -79.1539 90° East 491 565 33,000  Level Miami Center
Fri 09:18:09 AM 20.6375 -79.1539 90° East 491 565 33,000  Level Miami Center
Fri 09:20:10 AM 20.6375 -79.1539 90° East 491 565 33,000  Level Miami Center

Login

Don't have an account? Register now (free) for customized features, flight alerts, and more!